Time;durP1;ratioP1;P1;durP2;ratioP2;P2;SDS_P1;SDS_P2;PMS_P1;PMS_P2;Temp;Humidity;BMP_temperature;BMP_pressure;BME280_temperature;BME280_humidity;BME280_pressure;Samples;Min_cycle;Max_cycle;Signal;HPM_P1;HPM_P2
2021/08/31 00:02:00;;;;;;;23.07;15.20;;;13.20;88.90;;;;;;5013245;28;20169;-88
2021/08/31 00:04:25;;;;;;;16.70;14.63;;;13.20;88.70;;;;;;5013246;28;20201;-88
2021/08/31 00:06:51;;;;;;;17.60;14.17;;;13.30;88.70;;;;;;4995690;28;20181;-88
2021/08/31 00:09:17;;;;;;;18.27;14.93;;;13.30;88.70;;;;;;5013250;28;20528;-88
2021/08/31 00:11:44;;;;;;;17.27;15.50;;;13.30;88.50;;;;;;5013201;28;20660;-88
2021/08/31 00:14:10;;;;;;;17.27;14.83;;;13.30;88.60;;;;;;5014552;28;20272;-88
2021/08/31 00:16:37;;;;;;;20.30;15.20;;;13.30;88.60;;;;;;4999448;28;20176;-88
2021/08/31 00:19:02;;;;;;;16.43;13.80;;;13.30;88.40;;;;;;5016992;28;20261;-88
2021/08/31 00:21:28;;;;;;;17.33;15.33;;;13.30;88.50;;;;;;5016951;28;20193;-88
2021/08/31 00:23:54;;;;;;;17.07;14.37;;;13.30;88.40;;;;;;5016849;28;20756;-88
2021/08/31 00:26:19;;;;;;;22.07;15.03;;;13.30;88.30;;;;;;4999201;28;20255;-88
2021/08/31 00:28:45;;;;;;;17.07;14.37;;;13.20;88.30;;;;;;5015532;28;20185;-88
2021/08/31 00:31:10;;;;;;;17.57;15.17;;;13.20;88.40;;;;;;5016742;28;20283;-88
2021/08/31 00:33:36;;;;;;;20.83;14.47;;;13.20;88.60;;;;;;5015505;28;20190;-88
2021/08/31 00:36:04;;;;;;;16.40;14.50;;;13.20;88.30;;;;;;5016748;28;20173;-88
2021/08/31 00:38:30;;;;;;;16.03;13.20;;;13.20;88.20;;;;;;5016594;28;20184;-88
2021/08/31 00:40:57;;;;;;;19.53;13.70;;;13.20;88.20;;;;;;5016645;28;20196;-88
2021/08/31 00:43:22;;;;;;;18.43;12.60;;;13.20;88.40;;;;;;5016444;28;20192;-88
2021/08/31 00:45:49;;;;;;;18.83;14.90;;;13.20;88.40;;;;;;5015518;28;20201;-89
2021/08/31 00:48:17;;;;;;;17.60;14.10;;;13.10;88.60;;;;;;4998882;28;20554;-88
2021/08/31 00:50:44;;;;;;;19.37;14.30;;;13.10;88.80;;;;;;5016467;28;20170;-89
2021/08/31 00:53:10;;;;;;;19.83;13.43;;;13.00;88.80;;;;;;5016313;28;20195;-88
2021/08/31 00:55:36;;;;;;;17.10;13.97;;;12.90;88.80;;;;;;5016278;28;20177;-88
2021/08/31 00:58:02;;;;;;;16.47;14.17;;;12.90;88.80;;;;;;4998737;28;20595;-88
2021/08/31 01:00:27;;;;;;;17.23;13.40;;;13.00;88.70;;;;;;4998669;28;20721;-88
2021/08/31 01:02:54;;;;;;;16.73;13.27;;;13.00;88.60;;;;;;5016376;28;20197;-88
2021/08/31 01:05:19;;;;;;;15.67;12.50;;;13.00;88.40;;;;;;5014822;28;20209;-88
2021/08/31 01:07:45;;;;;;;21.67;12.27;;;12.90;88.40;;;;;;5016098;28;20227;-88
2021/08/31 01:10:14;;;;;;;15.53;13.10;;;12.90;88.40;;;;;;4998754;28;20173;-88
2021/08/31 01:12:40;;;;;;;15.57;13.43;;;12.90;88.50;;;;;;5015878;28;20669;-88
2021/08/31 01:15:06;;;;;;;16.27;12.83;;;12.90;88.70;;;;;;4998488;28;20200;-88
2021/08/31 01:17:32;;;;;;;17.17;14.27;;;12.80;88.80;;;;;;5016452;28;20284;-88
2021/08/31 01:19:58;;;;;;;16.83;12.67;;;12.80;88.70;;;;;;4998340;28;20209;-88
2021/08/31 01:22:24;;;;;;;16.97;13.87;;;12.80;88.80;;;;;;5015898;28;20653;-88
2021/08/31 01:25:01;;;;;;;14.30;12.77;;;12.80;88.70;;;;;;4997957;28;20212;-88
2021/08/31 01:27:27;;;;;;;16.17;12.07;;;12.80;88.70;;;;;;5014552;28;20173;-89
2021/08/31 01:29:55;;;;;;;14.47;12.93;;;12.80;88.70;;;;;;4998115;28;20221;-89
2021/08/31 01:32:21;;;;;;;18.87;13.37;;;12.80;88.70;;;;;;4998320;28;20197;-88
2021/08/31 01:34:47;;;;;;;17.50;12.97;;;12.80;88.60;;;;;;5015921;28;20177;-88
2021/08/31 01:37:12;;;;;;;15.00;12.80;;;12.80;88.60;;;;;;5015564;28;20173;-88
2021/08/31 01:39:39;;;;;;;17.60;13.40;;;12.80;88.50;;;;;;5014249;28;20227;-88
2021/08/31 01:42:05;;;;;;;15.90;13.47;;;12.80;88.50;;;;;;5014199;28;20208;-88
2021/08/31 01:44:31;;;;;;;15.03;12.80;;;12.70;88.70;;;;;;4997779;28;20201;-88
2021/08/31 01:46:57;;;;;;;17.63;14.03;;;12.70;88.60;;;;;;5014099;28;20209;-88
2021/08/31 01:49:23;;;;;;;23.40;13.73;;;12.70;88.60;;;;;;5015274;28;20208;-88
2021/08/31 01:51:48;;;;;;;20.63;13.97;;;12.70;88.50;;;;;;5013971;28;20173;-88
2021/08/31 01:54:14;;;;;;;20.40;14.23;;;12.70;88.60;;;;;;4997957;28;20284;-88
2021/08/31 01:56:40;;;;;;;20.93;13.63;;;12.60;88.80;;;;;;5015207;28;20248;-89
2021/08/31 01:59:07;;;;;;;14.53;12.20;;;12.60;88.70;;;;;;4997621;28;20591;-88
2021/08/31 02:01:32;;;;;;;16.23;14.57;;;12.60;88.70;;;;;;4997513;28;20185;-88
2021/08/31 02:03:58;;;;;;;14.70;12.37;;;12.60;88.80;;;;;;4997397;28;20189;-88
2021/08/31 02:06:24;;;;;;;16.47;13.80;;;12.50;88.70;;;;;;4997341;28;20296;-88
2021/08/31 02:08:50;;;;;;;18.43;13.13;;;12.50;88.90;;;;;;4997660;28;20304;-88
2021/08/31 02:11:15;;;;;;;19.23;13.30;;;12.50;88.90;;;;;;4998484;28;20180;-88
2021/08/31 02:13:41;;;;;;;17.73;13.77;;;12.40;88.80;;;;;;4997224;28;20190;-88
2021/08/31 02:16:08;;;;;;;20.97;13.93;;;12.30;89.00;;;;;;5013926;28;20174;-88
2021/08/31 02:18:39;;;;;;;17.43;14.93;;;12.30;89.20;;;;;;4997168;28;20641;-88
2021/08/31 02:21:06;;;;;;;21.13;14.73;;;12.30;89.30;;;;;;5014809;28;20507;-88
2021/08/31 02:23:32;;;;;;;18.60;15.17;;;12.20;89.40;;;;;;4997371;28;20212;-89
2021/08/31 02:25:58;;;;;;;18.57;15.80;;;12.20;89.50;;;;;;5014561;28;20248;-88
2021/08/31 02:28:23;;;;;;;18.43;14.93;;;12.10;89.70;;;;;;5014924;28;20174;-89
2021/08/31 02:30:49;;;;;;;19.73;15.53;;;12.10;89.60;;;;;;4996918;28;20177;-89
2021/08/31 02:33:15;;;;;;;22.80;15.93;;;12.10;89.60;;;;;;4996874;28;20196;-88
2021/08/31 02:35:41;;;;;;;21.00;15.30;;;12.00;89.70;;;;;;5014517;28;20712;-88
2021/08/31 02:38:06;;;;;;;18.87;14.33;;;12.00;89.90;;;;;;4997131;28;20188;-88
2021/08/31 02:40:32;;;;;;;19.77;15.80;;;12.00;89.80;;;;;;5014819;28;20509;-88
2021/08/31 02:42:58;;;;;;;22.53;16.13;;;12.00;89.70;;;;;;5014530;28;20204;-89
2021/08/31 02:45:23;;;;;;;22.50;15.60;;;12.00;89.80;;;;;;5013095;28;20677;-89
2021/08/31 02:47:49;;;;;;;20.27;15.53;;;12.00;90.00;;;;;;4996762;28;20653;-89
2021/08/31 02:50:14;;;;;;;19.97;15.87;;;12.00;90.00;;;;;;5013314;28;20538;-88
2021/08/31 02:52:40;;;;;;;22.20;16.10;;;11.90;90.10;;;;;;5012830;28;20692;-88
2021/08/31 02:55:06;;;;;;;26.47;16.33;;;11.80;90.10;;;;;;4996815;28;20205;-88
2021/08/31 02:57:32;;;;;;;20.70;15.33;;;11.80;90.20;;;;;;4996658;28;20181;-89
2021/08/31 03:00:00;;;;;;;18.70;14.90;;;11.80;90.20;;;;;;4996553;28;20184;-88
2021/08/31 03:02:26;;;;;;;24.27;15.13;;;11.80;90.20;;;;;;4996371;28;20233;-88
2021/08/31 03:04:51;;;;;;;16.30;13.57;;;11.80;90.10;;;;;;4996439;28;20640;-89
2021/08/31 03:07:17;;;;;;;16.57;13.00;;;11.90;90.00;;;;;;5012756;28;20638;-88
2021/08/31 03:09:43;;;;;;;21.00;14.03;;;11.90;90.00;;;;;;4996316;28;20208;-88
2021/08/31 03:12:09;;;;;;;19.03;13.53;;;11.90;90.00;;;;;;5013794;28;20204;-88
2021/08/31 03:14:35;;;;;;;17.40;13.67;;;11.90;89.90;;;;;;5013871;28;20189;-89
2021/08/31 03:17:01;;;;;;;18.93;14.10;;;11.90;89.70;;;;;;5013853;28;20181;-88
2021/08/31 03:19:26;;;;;;;20.63;14.10;;;11.90;89.60;;;;;;5012610;28;20642;-88
2021/08/31 03:21:53;;;;;;;15.80;13.40;;;11.90;89.70;;;;;;4996219;28;20178;-88
2021/08/31 03:24:19;;;;;;;18.00;14.07;;;11.90;89.60;;;;;;5013959;28;20621;-88
2021/08/31 03:26:45;;;;;;;18.80;14.37;;;11.90;89.50;;;;;;4996123;28;20184;-88
2021/08/31 03:29:10;;;;;;;18.43;14.30;;;11.90;89.40;;;;;;4996138;28;20185;-89
2021/08/31 03:31:36;;;;;;;20.60;15.83;;;11.90;89.40;;;;;;4996124;28;20182;-89
2021/08/31 03:34:02;;;;;;;19.53;16.27;;;11.80;89.70;;;;;;4995976;28;20197;-88
2021/08/31 03:36:27;;;;;;;20.93;17.03;;;11.80;89.90;;;;;;4996048;28;20525;-88
2021/08/31 03:38:53;;;;;;;21.40;17.00;;;11.70;90.10;;;;;;5013511;28;20520;-88
2021/08/31 03:41:19;;;;;;;21.90;17.37;;;11.70;90.30;;;;;;5012277;28;20696;-88
2021/08/31 03:43:45;;;;;;;20.83;16.60;;;11.70;90.30;;;;;;4995860;28;20615;-88
2021/08/31 03:46:10;;;;;;;27.33;16.93;;;11.60;90.40;;;;;;4995874;28;20772;-88
2021/08/31 03:48:36;;;;;;;20.27;15.90;;;11.70;90.40;;;;;;5014051;28;20193;-88
2021/08/31 03:51:01;;;;;;;21.67;16.20;;;11.70;90.40;;;;;;5000366;28;20178;-88
2021/08/31 03:53:27;;;;;;;24.00;16.57;;;11.60;90.20;;;;;;4999918;28;20669;-88
2021/08/31 03:55:53;;;;;;;20.73;15.70;;;11.70;90.30;;;;;;4999942;28;20185;-88
2021/08/31 03:58:18;;;;;;;18.47;14.27;;;11.70;90.30;;;;;;5017435;28;20181;-88
2021/08/31 04:00:44;;;;;;;19.60;15.37;;;11.70;90.20;;;;;;5016159;28;20277;-88
2021/08/31 04:03:10;;;;;;;18.50;13.47;;;11.70;90.10;;;;;;4999734;28;20201;-88
2021/08/31 04:05:35;;;;;;;21.60;13.67;;;11.70;89.80;;;;;;5017206;28;20216;-88
2021/08/31 04:08:01;;;;;;;18.67;13.23;;;11.80;89.50;;;;;;5017461;28;20182;-89
2021/08/31 04:10:27;;;;;;;23.97;13.27;;;11.90;89.60;;;;;;5015950;28;20177;-88
2021/08/31 04:12:52;;;;;;;18.47;12.67;;;11.90;89.40;;;;;;5017069;28;20200;-88
2021/08/31 04:15:18;;;;;;;17.23;13.93;;;11.80;89.30;;;;;;5000102;28;20177;-89
2021/08/31 04:17:43;;;;;;;16.43;12.70;;;11.90;89.50;;;;;;5017372;28;20544;-88
2021/08/31 04:20:10;;;;;;;17.70;12.47;;;11.80;89.50;;;;;;4999397;28;20667;-88
2021/08/31 04:22:35;;;;;;;18.07;11.97;;;11.80;89.50;;;;;;5016989;28;20263;-88
2021/08/31 04:25:01;;;;;;;16.83;12.57;;;11.80;89.60;;;;;;5016869;28;20221;-88
2021/08/31 04:27:27;;;;;;;17.57;12.37;;;11.80;89.50;;;;;;5017172;28;20177;-89
2021/08/31 04:29:52;;;;;;;15.17;13.20;;;11.70;89.60;;;;;;4999312;28;20630;-88
2021/08/31 04:32:18;;;;;;;16.03;13.27;;;11.70;89.80;;;;;;4999254;28;20220;-89
2021/08/31 04:34:44;;;;;;;17.13;12.27;;;11.60;89.90;;;;;;5017060;28;20537;-89
2021/08/31 04:37:10;;;;;;;16.23;12.60;;;11.50;90.00;;;;;;4999228;28;20302;-89
2021/08/31 04:39:35;;;;;;;21.30;12.30;;;11.50;90.10;;;;;;5016861;28;20173;-88
2021/08/31 04:42:06;;;;;;;17.67;12.50;;;11.50;90.00;;;;;;5016835;28;20178;-88
2021/08/31 04:44:35;;;;;;;17.73;13.37;;;11.60;90.00;;;;;;4999534;28;20201;-88
2021/08/31 04:47:01;;;;;;;17.33;12.60;;;11.70;89.90;;;;;;5016530;28;20174;-89
2021/08/31 04:49:27;;;;;;;14.13;11.93;;;11.70;89.90;;;;;;4999230;28;20516;-89
2021/08/31 04:51:53;;;;;;;14.33;11.87;;;11.70;89.70;;;;;;4999727;28;20181;-89
2021/08/31 04:54:18;;;;;;;16.43;11.67;;;11.70;89.70;;;;;;5016623;28;20528;-88
2021/08/31 04:56:44;;;;;;;16.20;12.37;;;11.80;89.60;;;;;;5016610;28;20181;-89
2021/08/31 04:59:10;;;;;;;16.27;11.03;;;11.80;89.50;;;;;;4998937;28;20633;-89
2021/08/31 05:01:35;;;;;;;15.90;11.60;;;11.80;89.20;;;;;;4998594;28;20204;-89
2021/08/31 05:04:01;;;;;;;13.73;10.77;;;11.90;89.20;;;;;;4998959;28;20201;-88
2021/08/31 05:06:27;;;;;;;15.30;10.70;;;11.90;89.00;;;;;;4999280;28;20198;-89
2021/08/31 05:08:53;;;;;;;15.30;11.77;;;11.80;88.90;;;;;;4998836;28;20181;-88
2021/08/31 05:11:20;;;;;;;17.87;12.17;;;11.70;89.10;;;;;;4998563;28;20185;-89
2021/08/31 05:13:45;;;;;;;16.07;12.03;;;11.60;89.50;;;;;;4998404;28;20201;-88
2021/08/31 05:16:14;;;;;;;14.13;11.57;;;11.60;89.80;;;;;;5014825;28;20192;-89
2021/08/31 05:18:40;;;;;;;20.47;12.20;;;11.60;89.70;;;;;;4998450;28;20190;-89
2021/08/31 05:21:06;;;;;;;16.13;12.83;;;11.60;89.60;;;;;;5015167;28;20276;-89
2021/08/31 05:23:33;;;;;;;18.77;11.57;;;11.70;89.60;;;;;;4998363;28;20228;-89
2021/08/31 05:26:00;;;;;;;17.17;12.47;;;11.70;89.40;;;;;;4998249;28;20255;-89
2021/08/31 05:28:25;;;;;;;18.63;13.20;;;11.70;89.60;;;;;;5014696;28;20177;-89
2021/08/31 05:30:51;;;;;;;19.90;12.67;;;11.80;89.60;;;;;;4998299;28;20188;-89
2021/08/31 05:33:17;;;;;;;16.63;12.33;;;11.80;89.70;;;;;;5015691;28;20221;-89
2021/08/31 05:35:42;;;;;;;15.27;12.70;;;11.80;89.60;;;;;;4998106;28;20178;-88
2021/08/31 05:38:08;;;;;;;19.30;12.60;;;11.90;89.70;;;;;;5015782;28;20184;-89
2021/08/31 05:40:34;;;;;;;15.73;12.53;;;11.90;89.70;;;;;;5015527;28;20185;-89
2021/08/31 05:42:59;;;;;;;17.20;12.93;;;12.00;89.70;;;;;;5015731;28;20574;-89
2021/08/31 05:45:25;;;;;;;15.80;12.57;;;12.00;89.80;;;;;;4997907;28;20201;-89
2021/08/31 05:47:51;;;;;;;16.97;12.60;;;12.00;89.70;;;;;;5014117;28;20181;-89
2021/08/31 05:50:17;;;;;;;17.00;11.97;;;12.00;89.80;;;;;;4997828;28;20268;-89
2021/08/31 05:52:42;;;;;;;14.67;11.67;;;12.10;89.90;;;;;;4997709;28;20282;-88
2021/08/31 05:55:09;;;;;;;18.67;12.63;;;12.10;90.00;;;;;;4997688;28;20189;-89
2021/08/31 05:57:35;;;;;;;17.33;12.10;;;12.10;90.20;;;;;;5015107;28;20178;-89
2021/08/31 06:00:01;;;;;;;22.30;12.83;;;12.20;90.10;;;;;;5015156;28;20177;-89
2021/08/31 06:02:27;;;;;;;21.23;13.40;;;12.10;90.20;;;;;;5013835;28;20256;-88
2021/08/31 06:04:52;;;;;;;18.73;13.13;;;12.20;90.40;;;;;;5013737;28;20201;-89
2021/08/31 06:07:18;;;;;;;20.50;13.10;;;12.20;90.60;;;;;;5013808;28;20187;-89
2021/08/31 06:09:44;;;;;;;19.10;13.33;;;12.30;90.70;;;;;;5015472;28;20211;-89
2021/08/31 06:12:12;;;;;;;19.53;12.87;;;12.30;90.70;;;;;;4997378;28;20201;-88
2021/08/31 06:14:39;;;;;;;18.97;12.60;;;12.30;90.70;;;;;;4997358;28;20213;-89
2021/08/31 06:17:06;;;;;;;14.97;12.33;;;12.30;90.70;;;;;;4997280;28;20189;-89
2021/08/31 06:19:32;;;;;;;20.30;12.77;;;12.40;90.60;;;;;;5015067;28;20177;-89
2021/08/31 06:21:58;;;;;;;18.00;13.10;;;12.50;91.00;;;;;;5015033;28;20261;-89
2021/08/31 06:24:24;;;;;;;21.70;14.03;;;12.50;91.00;;;;;;4997408;28;20201;-89
2021/08/31 06:26:49;;;;;;;18.13;13.83;;;12.60;91.10;;;;;;5014639;28;20189;-89
2021/08/31 06:29:15;;;;;;;15.83;13.07;;;12.60;91.20;;;;;;5013430;28;20174;-89
2021/08/31 06:31:41;;;;;;;18.77;13.03;;;12.60;91.10;;;;;;5013417;28;20641;-89
2021/08/31 06:34:07;;;;;;;19.10;13.10;;;12.70;91.20;;;;;;5014612;28;20320;-89
2021/08/31 06:36:33;;;;;;;17.67;12.90;;;12.70;91.20;;;;;;4997007;28;20193;-89
2021/08/31 06:38:58;;;;;;;16.03;13.10;;;12.80;91.20;;;;;;4997691;28;20637;-89
2021/08/31 06:41:24;;;;;;;22.43;12.27;;;13.00;91.40;;;;;;5014445;28;20630;-89
2021/08/31 06:43:50;;;;;;;17.27;12.80;;;13.00;91.40;;;;;;4996724;28;20327;-89
2021/08/31 06:46:16;;;;;;;20.40;12.23;;;13.10;91.40;;;;;;4996674;28;20201;-89
2021/08/31 06:48:43;;;;;;;18.17;11.90;;;13.20;91.40;;;;;;5014568;28;20177;-89
2021/08/31 06:51:10;;;;;;;17.37;11.60;;;13.20;91.40;;;;;;4997016;28;20224;-89
2021/08/31 06:53:36;;;;;;;23.20;12.37;;;13.30;91.40;;;;;;5014162;28;20205;-89
2021/08/31 06:56:02;;;;;;;17.13;12.30;;;13.30;91.30;;;;;;5014094;28;20177;-89
2021/08/31 06:58:27;;;;;;;17.93;12.13;;;13.30;91.30;;;;;;5012854;28;20588;-89
2021/08/31 07:00:53;;;;;;;16.70;12.50;;;13.40;91.50;;;;;;5014379;28;20177;-89
2021/08/31 07:03:19;;;;;;;17.60;12.27;;;13.50;91.60;;;;;;4996431;28;20296;-89
2021/08/31 07:05:44;;;;;;;16.13;11.67;;;13.70;91.50;;;;;;5012683;28;20201;-89
2021/08/31 07:08:10;;;;;;;28.90;12.67;;;13.70;91.40;;;;;;5014244;28;20181;-89
2021/08/31 07:10:36;;;;;;;15.43;11.53;;;13.80;91.40;;;;;;4996666;28;20232;-89
2021/08/31 07:13:02;;;;;;;18.57;12.17;;;13.80;91.40;;;;;;4996499;28;20198;-89
2021/08/31 07:15:27;;;;;;;17.67;11.63;;;13.90;91.40;;;;;;5013836;28;20182;-89
2021/08/31 07:17:53;;;;;;;20.67;12.60;;;14.00;91.30;;;;;;4996166;28;20260;-89
2021/08/31 07:20:19;;;;;;;14.50;11.47;;;14.00;91.10;;;;;;4996523;28;20240;-89
2021/08/31 07:22:44;;;;;;;15.17;11.77;;;14.10;91.20;;;;;;4995827;28;20220;-89
2021/08/31 07:25:10;;;;;;;14.10;11.23;;;14.20;91.20;;;;;;4996029;28;20263;-89
2021/08/31 07:27:36;;;;;;;17.70;11.70;;;14.20;91.20;;;;;;4996962;28;20189;-89
2021/08/31 07:30:02;;;;;;;14.47;12.10;;;14.30;91.30;;;;;;5014277;28;20177;-90
2021/08/31 07:32:28;;;;;;;17.43;11.80;;;14.50;91.30;;;;;;5013499;28;20704;-89
2021/08/31 07:34:54;;;;;;;17.23;11.83;;;14.50;91.00;;;;;;5013635;28;20264;-89
2021/08/31 07:37:19;;;;;;;17.10;11.53;;;14.50;91.00;;;;;;4996049;28;20227;-89
2021/08/31 07:39:45;;;;;;;18.43;11.57;;;14.70;91.20;;;;;;4996055;28;20277;-89
2021/08/31 07:42:11;;;;;;;16.07;12.07;;;14.70;91.20;;;;;;4995908;28;20284;-89
2021/08/31 07:44:37;;;;;;;16.10;12.00;;;14.80;91.10;;;;;;4995931;28;20192;-89
2021/08/31 07:47:03;;;;;;;22.07;14.30;;;14.90;90.90;;;;;;4995904;28;20173;-89
2021/08/31 07:49:29;;;;;;;19.00;13.13;;;14.90;90.90;;;;;;5014001;28;20174;-89
2021/08/31 07:51:55;;;;;;;26.67;16.73;;;15.00;90.80;;;;;;5013343;28;20180;-88
2021/08/31 07:54:21;;;;;;;18.57;11.97;;;15.20;91.40;;;;;;5013196;28;20197;-87
2021/08/31 07:56:46;;;;;;;16.92;11.65;;;15.30;91.30;;;;;;4995710;28;20637;-87
2021/08/31 07:59:12;;;;;;;17.98;11.63;;;15.60;91.30;;;;;;4995938;28;20177;-87
2021/08/31 08:01:38;;;;;;;17.25;10.73;;;15.70;91.00;;;;;;5013310;28;20174;-87
2021/08/31 08:04:04;;;;;;;15.60;11.25;;;15.70;90.10;;;;;;5012414;28;20675;-87
2021/08/31 08:06:29;;;;;;;16.95;10.95;;;15.90;89.90;;;;;;4995557;28;20209;-87
2021/08/31 08:08:56;;;;;;;23.05;10.45;;;16.00;89.60;;;;;;4995587;28;20177;-87
2021/08/31 08:11:22;;;;;;;20.33;11.18;;;16.00;89.30;;;;;;5013263;28;20166;-87
2021/08/31 08:13:48;;;;;;;15.68;11.57;;;16.10;89.50;;;;;;4995626;28;20232;-87
2021/08/31 08:16:14;;;;;;;17.65;11.30;;;16.20;89.70;;;;;;5013131;28;20590;-87
2021/08/31 08:18:40;;;;;;;14.27;11.45;;;16.30;89.20;;;;;;4995483;28;20188;-87
2021/08/31 08:21:05;;;;;;;15.40;11.07;;;16.40;88.80;;;;;;4979602;28;20532;-88
2021/08/31 08:23:32;;;;;;;20.23;10.82;;;16.40;88.80;;;;;;4995519;28;20308;-88
2021/08/31 08:25:57;;;;;;;14.63;10.63;;;16.50;89.10;;;;;;5012993;28;20198;-87
2021/08/31 08:28:26;;;;;;;18.55;10.82;;;16.60;89.00;;;;;;5011846;28;20179;-88
2021/08/31 08:30:52;;;;;;;13.23;10.13;;;16.60;88.80;;;;;;5013293;28;20641;-88
2021/08/31 08:33:19;;;;;;;17.42;10.23;;;16.70;88.30;;;;;;5013003;28;20217;-87
2021/08/31 08:35:47;;;;;;;15.63;10.65;;;16.70;88.10;;;;;;5015253;28;20654;-87
2021/08/31 08:38:13;;;;;;;16.67;10.77;;;16.80;88.30;;;;;;4999041;28;20238;-87
2021/08/31 08:40:40;;;;;;;17.65;10.05;;;17.00;88.20;;;;;;4999022;28;20188;-88
2021/08/31 08:43:07;;;;;;;14.32;10.15;;;17.10;88.10;;;;;;4999012;28;20201;-88
2021/08/31 08:45:33;;;;;;;13.55;9.57;;;17.20;88.00;;;;;;5016707;28;20200;-88
2021/08/31 08:47:59;;;;;;;14.63;9.35;;;17.30;86.50;;;;;;5016463;28;20173;-88
2021/08/31 08:50:26;;;;;;;16.38;10.07;;;17.30;86.30;;;;;;4998818;28;20652;-87
2021/08/31 08:52:52;;;;;;;12.93;8.93;;;17.40;86.80;;;;;;4998678;28;20283;-87
2021/08/31 08:55:18;;;;;;;12.90;8.32;;;17.60;85.90;;;;;;5015032;28;20205;-87
2021/08/31 08:57:44;;;;;;;14.07;9.60;;;17.60;85.70;;;;;;5016327;28;20174;-87
2021/08/31 09:00:11;;;;;;;11.10;9.15;;;17.80;84.80;;;;;;5016205;28;20181;-87
2021/08/31 09:02:43;;;;;;;15.02;9.68;;;17.90;85.80;;;;;;5016050;28;20231;-87
2021/08/31 09:05:13;;;;;;;10.73;8.50;;;18.00;84.20;;;;;;5016129;28;20200;-87
2021/08/31 09:07:40;;;;;;;14.40;8.48;;;18.10;83.80;;;;;;5016112;28;20253;-87
2021/08/31 09:10:23;;;;;;;11.98;7.75;;;18.20;84.10;;;;;;5016185;28;20174;-87
2021/08/31 09:12:51;;;;;;;11.13;7.55;;;18.40;81.80;;;;;;5016166;28;20185;-87
2021/08/31 09:15:26;;;;;;;13.63;7.50;;;18.40;82.30;;;;;;5014702;28;20186;-87
2021/08/31 09:18:15;;;;;;;12.27;7.63;;;18.50;81.40;;;;;;4998349;28;20552;-87
2021/08/31 09:21:06;;;;;;;11.07;7.65;;;18.60;80.80;;;;;;5015868;28;20158;-87
2021/08/31 09:23:34;;;;;;;14.65;7.70;;;18.70;81.90;;;;;;4997613;28;20224;-87
2021/08/31 09:26:07;;;;;;;9.93;7.63;;;18.90;79.90;;;;;;5014418;28;20288;-87
2021/08/31 09:28:39;;;;;;;11.52;7.38;;;19.10;81.30;;;;;;5015792;28;20150;-88
2021/08/31 09:31:16;;;;;;;10.63;6.53;;;19.30;80.60;;;;;;5015700;28;20531;-88
2021/08/31 09:33:47;;;;;;;10.32;7.00;;;19.30;78.30;;;;;;4998023;28;20193;-88
2021/08/31 09:36:24;;;;;;;8.90;6.57;;;19.40;76.70;;;;;;4997997;28;20223;-88
2021/08/31 09:38:58;;;;;;;9.70;7.13;;;19.70;79.30;;;;;;4997916;28;20177;-88
2021/08/31 09:41:29;;;;;;;7.93;6.32;;;19.80;74.50;;;;;;5015748;28;20154;-88
2021/08/31 09:43:56;;;;;;;7.32;5.97;;;19.90;76.80;;;;;;5014314;28;20205;-88
2021/08/31 09:46:22;;;;;;;8.93;6.35;;;19.90;74.50;;;;;;4997772;28;20223;-88
2021/08/31 09:48:48;;;;;;;7.38;6.00;;;19.80;74.20;;;;;;5015294;28;20256;-87
2021/08/31 09:51:15;;;;;;;10.07;6.60;;;20.00;73.80;;;;;;4997707;28;20256;-87
2021/08/31 09:53:41;;;;;;;10.20;5.97;;;20.10;75.40;;;;;;5015156;28;20664;-87
2021/08/31 09:56:11;;;;;;;8.30;6.07;;;20.30;73.50;;;;;;4997582;28;20235;-87
2021/08/31 09:58:47;;;;;;;10.52;6.45;;;20.20;71.10;;;;;;5014001;28;20170;-87
2021/08/31 10:01:13;;;;;;;6.57;5.60;;;20.30;73.40;;;;;;5013923;28;20203;-87
2021/08/31 10:03:40;;;;;;;10.73;6.43;;;20.40;73.50;;;;;;5015029;28;20193;-87
2021/08/31 10:06:06;;;;;;;9.25;5.88;;;20.70;72.80;;;;;;5015209;28;20200;-87
2021/08/31 10:08:33;;;;;;;7.43;6.28;;;20.70;71.10;;;;;;5015243;28;20176;-88
2021/08/31 10:11:01;;;;;;;8.93;5.70;;;20.90;73.90;;;;;;5014890;28;20174;-88
2021/08/31 10:13:28;;;;;;;9.45;6.70;;;21.00;71.80;;;;;;5014762;28;20190;-88
2021/08/31 10:15:58;;;;;;;10.60;6.10;;;20.90;73.40;;;;;;5014802;28;20174;-88
2021/08/31 10:18:28;;;;;;;12.50;6.63;;;21.20;70.20;;;;;;5014777;28;20189;-88
2021/08/31 10:21:00;;;;;;;11.57;6.47;;;21.10;70.50;;;;;;5015016;28;20166;-87
2021/08/31 10:23:32;;;;;;;6.75;6.05;;;21.20;71.00;;;;;;5014568;28;20221;-87
2021/08/31 10:26:22;;;;;;;5.53;4.93;;;21.30;71.40;;;;;;5014574;28;20527;-87
2021/08/31 10:28:49;;;;;;;5.65;4.57;;;21.30;68.00;;;;;;5014915;28;20540;-87
2021/08/31 10:31:29;;;;;;;8.27;5.50;;;21.40;66.70;;;;;;5014534;28;20220;-88
2021/08/31 10:33:55;;;;;;;6.50;5.38;;;21.50;69.40;;;;;;5014387;28;20661;-87
2021/08/31 10:36:36;;;;;;;7.72;5.28;;;21.50;69.00;;;;;;4997933;28;20186;-88
2021/08/31 10:39:05;;;;;;;6.95;4.70;;;21.20;63.30;;;;;;5013194;28;20172;-87
2021/08/31 10:41:34;;;;;;;6.10;4.78;;;21.70;65.50;;;;;;5014294;28;20184;-88
2021/08/31 10:44:00;;;;;;;7.90;4.18;;;21.80;62.30;;;;;;5012946;28;20672;-88
2021/08/31 10:46:46;;;;;;;7.57;4.38;;;21.80;63.50;;;;;;4996543;28;20194;-88
2021/08/31 10:49:11;;;;;;;8.05;4.30;;;21.70;61.80;;;;;;5014329;28;20586;-90
2021/08/31 10:52:07;;;;;;;7.22;4.80;;;21.80;62.30;;;;;;4997056;28;20169;-90
2021/08/31 10:54:47;;;;;;;10.05;4.63;;;21.80;62.60;;;;;;5014429;28;20173;-90
2021/08/31 10:57:39;;;;;;;6.82;4.88;;;21.70;61.60;;;;;;4996309;28;20264;-90
2021/08/31 11:00:24;;;;;;;6.55;4.40;;;21.70;62.50;;;;;;4993287;28;20192;-90
2021/08/31 11:02:58;;;;;;;6.60;4.03;;;21.70;60.20;;;;;;4995961;28;20220;-89
2021/08/31 11:05:27;;;;;;;8.35;4.68;;;21.80;61.70;;;;;;5014219;28;20235;-90
2021/08/31 11:08:02;;;;;;;7.13;4.70;;;21.80;59.90;;;;;;5012767;28;20184;-90
2021/08/31 11:10:50;;;;;;;4.97;4.28;;;21.90;59.30;;;;;;5013367;28;20184;-90
2021/08/31 11:13:20;;;;;;;9.50;4.68;;;21.80;60.00;;;;;;4997386;28;20224;-90
2021/08/31 11:15:49;;;;;;;9.45;4.97;;;21.60;62.20;;;;;;4996379;28;20638;-90
2021/08/31 11:18:19;;;;;;;7.57;4.20;;;21.70;63.60;;;;;;4996683;28;20296;-91
2021/08/31 11:20:45;;;;;;;8.00;4.80;;;22.10;61.40;;;;;;5013864;28;20193;-91
2021/08/31 11:23:19;;;;;;;10.07;4.90;;;22.10;60.60;;;;;;5013660;28;20747;-90
2021/08/31 11:25:55;;;;;;;12.55;4.50;;;22.20;61.30;;;;;;4996194;28;20556;-90
2021/08/31 11:28:24;;;;;;;8.05;4.80;;;22.30;59.60;;;;;;4997170;28;20180;-90
2021/08/31 11:31:03;;;;;;;8.25;4.68;;;22.60;58.30;;;;;;4996215;28;20177;-90
2021/08/31 11:33:34;;;;;;;6.72;4.28;;;22.50;59.70;;;;;;5013597;28;20197;-90
2021/08/31 11:36:05;;;;;;;6.15;4.30;;;22.30;57.30;;;;;;4996060;28;20200;-90
2021/08/31 11:38:35;;;;;;;6.13;4.53;;;22.30;58.80;;;;;;4996511;28;20181;-90
2021/08/31 11:41:27;;;;;;;9.38;5.13;;;22.50;59.90;;;;;;4995950;28;20184;-90
2021/08/31 11:43:58;;;;;;;8.30;5.20;;;22.40;59.60;;;;;;4995935;28;20201;-90
2021/08/31 11:46:29;;;;;;;6.68;4.53;;;22.60;56.30;;;;;;4995948;28;20207;-90
2021/08/31 11:49:17;;;;;;;10.30;4.68;;;22.80;59.40;;;;;;5013472;28;20637;-88
2021/08/31 11:52:15;;;;;;;5.47;4.53;;;23.00;56.80;;;;;;5013476;28;20171;-88
2021/08/31 11:54:43;;;;;;;6.80;4.60;;;22.90;58.30;;;;;;4990759;28;20200;-88
2021/08/31 11:57:10;;;;;;;6.15;5.07;;;22.80;56.80;;;;;;4996214;28;20170;-88
2021/08/31 11:59:49;;;;;;;15.25;5.50;;;22.70;56.40;;;;;;4995854;28;20189;-88
2021/08/31 12:02:19;;;;;;;9.35;4.32;;;22.50;57.80;;;;;;4996160;28;20162;-88
2021/08/31 12:04:55;;;;;;;7.82;4.80;;;22.30;57.00;;;;;;5012575;28;20185;-88
2021/08/31 12:07:24;;;;;;;8.90;4.72;;;22.30;56.80;;;;;;5013533;28;20169;-88
2021/08/31 12:09:52;;;;;;;6.88;4.90;;;22.60;58.90;;;;;;5012957;28;20200;-88
2021/08/31 12:12:19;;;;;;;6.25;4.53;;;22.90;58.90;;;;;;4999605;28;20201;-87
2021/08/31 12:14:49;;;;;;;5.50;4.50;;;23.00;57.90;;;;;;5017468;28;20165;-88
2021/08/31 12:17:43;;;;;;;7.38;4.63;;;23.00;59.70;;;;;;4999470;28;20178;-88
2021/08/31 12:20:38;;;;;;;6.38;5.15;;;22.80;57.20;;;;;;4999542;28;20178;-88
2021/08/31 12:23:05;;;;;;;9.65;4.40;;;23.00;57.90;;;;;;4990830;28;20213;-87
2021/08/31 12:25:45;;;;;;;7.40;4.63;;;23.00;56.90;;;;;;4999273;28;20704;-87
2021/08/31 12:28:11;;;;;;;5.07;4.47;;;23.00;58.10;;;;;;5016945;28;20572;-87
2021/08/31 12:30:40;;;;;;;5.65;4.85;;;23.10;56.60;;;;;;4999320;28;20173;-87
2021/08/31 12:33:07;;;;;;;4.80;4.28;;;23.10;56.80;;;;;;4999136;28;20199;-87
2021/08/31 12:38:19;;;;;;;6.38;4.25;;;23.70;55.20;;;;;;5016804;28;20173;-88